Time;durP1;ratioP1;P1;durP2;ratioP2;P2;SDS_P1;SDS_P2;PMS_P1;PMS_P2;Temp;Humidity;BMP_temperature;BMP_pressure;BME280_temperature;BME280_humidity;BME280_pressure;Samples;Min_cycle;Max_cycle;Signal;HPM_P1;HPM_P2
2022/03/12 00:01:40;;;;;;;11.30;6.88;;;8.60;68.10;;;;;;5073768;28;20365;-61
2022/03/12 00:04:07;;;;;;;12.25;6.78;;;8.60;68.50;;;;;;5073491;28;20045;-61
2022/03/12 00:06:33;;;;;;;10.35;6.10;;;8.50;68.60;;;;;;5073661;28;20039;-61
2022/03/12 00:08:58;;;;;;;11.05;6.82;;;8.60;68.60;;;;;;5072649;28;20037;-63
2022/03/12 00:11:27;;;;;;;10.77;7.03;;;8.50;68.90;;;;;;5073982;28;20039;-61
2022/03/12 00:13:54;;;;;;;9.27;6.63;;;8.40;69.60;;;;;;5073330;28;20484;-62
2022/03/12 00:16:25;;;;;;;10.23;6.03;;;8.40;70.00;;;;;;5076218;28;20484;-61
2022/03/12 00:18:56;;;;;;;12.35;6.50;;;8.40;69.70;;;;;;5077396;28;20115;-61
2022/03/12 00:21:28;;;;;;;9.93;5.95;;;8.40;69.80;;;;;;5056787;28;20045;-61
2022/03/12 00:24:00;;;;;;;9.38;6.43;;;8.30;69.60;;;;;;5056213;28;20080;-61
2022/03/12 00:26:29;;;;;;;8.63;5.97;;;8.30;69.80;;;;;;5056573;28;20465;-61
2022/03/12 00:28:55;;;;;;;11.02;6.13;;;8.20;69.80;;;;;;5056503;28;20029;-61
2022/03/12 00:31:22;;;;;;;10.23;6.60;;;8.30;69.60;;;;;;5057130;28;20365;-61
2022/03/12 00:33:47;;;;;;;9.43;6.25;;;8.30;69.50;;;;;;5057234;28;20045;-61
2022/03/12 00:36:14;;;;;;;10.68;6.10;;;8.20;69.60;;;;;;5058862;28;20059;-61
2022/03/12 00:38:40;;;;;;;8.43;5.90;;;8.20;69.80;;;;;;5055937;28;20060;-61
2022/03/12 00:41:07;;;;;;;9.48;6.07;;;8.30;69.70;;;;;;5055794;28;20059;-61
2022/03/12 00:43:32;;;;;;;9.55;6.00;;;8.20;69.60;;;;;;5056511;28;20107;-62
2022/03/12 00:45:58;;;;;;;10.00;6.07;;;8.20;69.10;;;;;;5058358;28;20045;-62
2022/03/12 00:48:24;;;;;;;12.25;6.57;;;8.20;69.40;;;;;;5077570;28;20070;-62
2022/03/12 00:50:50;;;;;;;9.93;5.80;;;8.20;69.60;;;;;;5077113;28;20337;-62
2022/03/12 00:53:15;;;;;;;10.20;5.93;;;8.20;69.50;;;;;;5075846;28;20048;-62
2022/03/12 00:55:42;;;;;;;9.70;6.40;;;8.20;69.70;;;;;;5077348;28;20090;-62
2022/03/12 00:58:08;;;;;;;9.70;6.22;;;8.20;69.60;;;;;;5076739;28;20037;-62
2022/03/12 01:00:34;;;;;;;10.13;5.90;;;8.20;69.70;;;;;;5075877;28;20052;-62
2022/03/12 01:03:01;;;;;;;13.65;6.40;;;8.20;69.70;;;;;;5076643;28;20044;-62
2022/03/12 01:05:48;;;;;;;8.55;5.80;;;8.20;69.60;;;;;;5076672;28;20381;-61
2022/03/12 01:08:15;;;;;;;14.90;6.78;;;8.10;69.60;;;;;;5075461;28;20059;-62
2022/03/12 01:10:41;;;;;;;9.45;6.00;;;8.10;69.60;;;;;;5075989;28;20040;-63
2022/03/12 01:13:08;;;;;;;10.95;5.43;;;8.10;69.40;;;;;;5076434;28;20140;-61
2022/03/12 01:15:34;;;;;;;10.05;5.70;;;8.10;69.40;;;;;;5076803;28;20079;-61
2022/03/12 01:18:01;;;;;;;11.23;6.13;;;8.10;69.50;;;;;;5076456;28;20044;-61
2022/03/12 01:20:27;;;;;;;8.48;5.97;;;8.00;69.70;;;;;;5076416;28;20052;-61
2022/03/12 01:22:53;;;;;;;10.18;6.30;;;8.10;69.70;;;;;;5076626;28;20086;-62
2022/03/12 01:25:19;;;;;;;12.73;6.65;;;8.00;69.70;;;;;;5060656;28;20048;-62
2022/03/12 01:27:45;;;;;;;12.65;6.28;;;8.00;69.70;;;;;;5057281;28;20235;-62
2022/03/12 01:30:12;;;;;;;8.15;5.82;;;8.00;70.00;;;;;;5056593;28;20043;-61
2022/03/12 01:32:38;;;;;;;11.23;5.32;;;8.00;69.60;;;;;;5054819;28;20037;-64
2022/03/12 01:35:05;;;;;;;9.75;6.15;;;8.00;69.40;;;;;;5054299;28;20045;-62
2022/03/12 01:37:31;;;;;;;12.82;6.30;;;8.00;69.60;;;;;;5055817;28;20408;-62
2022/03/12 01:39:57;;;;;;;9.30;6.13;;;8.00;69.60;;;;;;5054839;28;20047;-61
2022/03/12 01:42:27;;;;;;;9.85;5.97;;;8.00;69.60;;;;;;5054500;28;20068;-62
2022/03/12 01:44:53;;;;;;;9.18;6.25;;;8.10;69.30;;;;;;5055678;28;20044;-61
2022/03/12 01:47:21;;;;;;;9.98;6.47;;;8.10;68.90;;;;;;5068146;28;20024;-64
2022/03/12 01:49:52;;;;;;;11.50;6.00;;;8.10;68.90;;;;;;5076276;28;20063;-61
2022/03/12 01:52:18;;;;;;;9.32;5.93;;;8.10;68.60;;;;;;5075537;28;20037;-62
2022/03/12 01:54:44;;;;;;;10.30;6.07;;;8.10;69.00;;;;;;5075834;28;20036;-62
2022/03/12 01:57:10;;;;;;;10.32;6.18;;;8.10;68.80;;;;;;5075542;28;20040;-61
2022/03/12 01:59:37;;;;;;;9.25;5.57;;;8.10;68.90;;;;;;5075781;28;20048;-62
2022/03/12 02:02:08;;;;;;;9.63;6.22;;;8.20;68.90;;;;;;5075682;28;20033;-61
2022/03/12 02:04:37;;;;;;;11.18;6.40;;;8.10;68.90;;;;;;5075502;28;20067;-61
2022/03/12 02:07:02;;;;;;;10.73;5.78;;;8.10;68.60;;;;;;5074507;28;20040;-62
2022/03/12 02:09:28;;;;;;;9.48;6.03;;;8.10;68.80;;;;;;5075814;28;20039;-62
2022/03/12 02:11:54;;;;;;;8.88;5.68;;;8.10;68.70;;;;;;5075989;28;20036;-63
2022/03/12 02:14:21;;;;;;;12.07;6.45;;;8.10;69.00;;;;;;5075431;28;20040;-61
2022/03/12 02:16:58;;;;;;;11.43;6.50;;;8.00;68.90;;;;;;5075411;28;20040;-61
2022/03/12 02:19:26;;;;;;;11.82;6.40;;;8.00;68.60;;;;;;5075507;28;20045;-62
2022/03/12 02:21:58;;;;;;;10.77;6.50;;;8.00;69.10;;;;;;5075751;28;20101;-61
2022/03/12 02:24:27;;;;;;;13.07;6.15;;;8.00;69.10;;;;;;5075409;28;20045;-61
2022/03/12 02:26:57;;;;;;;10.02;6.25;;;8.00;69.50;;;;;;5075139;28;20457;-62
2022/03/12 02:29:25;;;;;;;8.13;5.53;;;8.00;69.30;;;;;;5075303;28;20453;-62
2022/03/12 02:31:56;;;;;;;8.88;6.00;;;8.00;68.90;;;;;;5073942;28;20123;-61
2022/03/12 02:34:28;;;;;;;13.18;6.90;;;8.00;68.90;;;;;;5074247;28;20052;-61
2022/03/12 02:36:56;;;;;;;10.13;6.03;;;8.00;69.50;;;;;;5073918;28;20037;-62
2022/03/12 02:39:22;;;;;;;10.13;6.22;;;7.90;69.70;;;;;;5074640;28;20117;-61
2022/03/12 02:41:49;;;;;;;12.02;6.18;;;8.00;69.20;;;;;;5074956;28;20476;-61
2022/03/12 02:44:24;;;;;;;16.10;6.43;;;8.10;69.00;;;;;;5074460;28;20071;-62
2022/03/12 02:47:21;;;;;;;10.30;6.10;;;8.10;69.20;;;;;;5074886;28;20098;-60
2022/03/12 02:49:51;;;;;;;11.98;6.55;;;8.10;69.00;;;;;;5074918;28;20384;-61
2022/03/12 02:52:18;;;;;;;10.15;6.85;;;8.00;69.10;;;;;;5073661;28;20050;-61
2022/03/12 02:54:45;;;;;;;13.40;6.20;;;8.00;69.20;;;;;;5075012;28;20055;-63
2022/03/12 02:57:11;;;;;;;8.52;5.80;;;8.10;69.30;;;;;;5074596;28;20044;-61
2022/03/12 02:59:38;;;;;;;10.45;6.57;;;8.10;69.30;;;;;;5073564;28;20449;-61
2022/03/12 03:02:08;;;;;;;12.43;6.20;;;8.20;69.40;;;;;;5074759;28;20091;-62
2022/03/12 03:04:35;;;;;;;9.30;6.07;;;8.20;69.70;;;;;;5073327;28;20047;-61
2022/03/12 03:07:03;;;;;;;10.15;6.35;;;8.10;69.50;;;;;;5074280;28;20416;-61
2022/03/12 03:09:29;;;;;;;9.32;6.38;;;8.10;69.60;;;;;;5074704;28;20055;-60
2022/03/12 03:11:57;;;;;;;11.95;6.55;;;8.20;69.70;;;;;;5074769;28;20040;-62
2022/03/12 03:14:26;;;;;;;10.18;6.45;;;8.20;69.50;;;;;;5073430;28;20453;-62
2022/03/12 03:16:56;;;;;;;11.20;6.53;;;8.20;69.20;;;;;;5074323;28;20043;-61
2022/03/12 03:19:26;;;;;;;12.07;6.35;;;8.20;69.10;;;;;;5074378;28;20056;-61
2022/03/12 03:21:54;;;;;;;10.85;6.28;;;8.30;69.00;;;;;;5074391;28;20048;-61
2022/03/12 03:24:21;;;;;;;9.85;6.78;;;8.30;69.00;;;;;;5073700;28;20480;-61
2022/03/12 03:26:55;;;;;;;11.57;7.25;;;8.30;68.70;;;;;;5074204;28;20036;-61
2022/03/12 03:29:23;;;;;;;10.63;6.70;;;8.30;69.10;;;;;;5074400;28;20127;-62
2022/03/12 03:31:50;;;;;;;8.85;6.60;;;8.30;69.10;;;;;;5074168;28;20039;-61
2022/03/12 03:34:16;;;;;;;10.18;6.55;;;8.30;69.30;;;;;;5073828;28;20064;-62
2022/03/12 03:36:43;;;;;;;11.45;6.55;;;8.30;69.60;;;;;;5074064;28;20036;-61
2022/03/12 03:39:09;;;;;;;10.52;6.22;;;8.30;70.10;;;;;;5074223;28;20075;-61
2022/03/12 03:41:35;;;;;;;10.35;6.55;;;8.30;70.60;;;;;;5074114;28;20050;-62
2022/03/12 03:44:01;;;;;;;10.60;6.25;;;8.30;71.00;;;;;;5073754;28;20428;-62
2022/03/12 03:46:27;;;;;;;9.75;6.85;;;8.20;71.60;;;;;;5073327;28;20051;-62
2022/03/12 03:48:54;;;;;;;11.70;6.45;;;8.30;72.00;;;;;;5073751;28;20449;-61
2022/03/12 03:51:21;;;;;;;9.13;6.32;;;8.20;72.80;;;;;;5073899;28;20040;-61
2022/03/12 03:53:47;;;;;;;8.52;6.22;;;8.20;73.40;;;;;;5073765;28;20091;-61
2022/03/12 03:56:13;;;;;;;12.15;6.82;;;8.20;73.30;;;;;;5073720;28;20044;-61
2022/03/12 03:58:39;;;;;;;11.05;6.47;;;8.20;73.50;;;;;;5074009;28;20116;-62
2022/03/12 04:01:12;;;;;;;10.45;6.80;;;8.10;75.00;;;;;;5073387;28;20472;-61
2022/03/12 04:03:44;;;;;;;10.68;7.15;;;8.10;75.50;;;;;;5073598;28;20095;-61
2022/03/12 04:06:10;;;;;;;11.88;7.13;;;8.10;76.90;;;;;;5073286;28;20506;-61
2022/03/12 04:08:36;;;;;;;12.60;6.82;;;8.10;76.00;;;;;;5073582;28;20032;-62
2022/03/12 04:11:06;;;;;;;11.18;6.90;;;8.10;75.90;;;;;;5073755;28;20048;-62
2022/03/12 04:13:34;;;;;;;10.07;6.50;;;8.00;76.80;;;;;;5073592;28;20047;-62
2022/03/12 04:16:01;;;;;;;10.43;6.88;;;8.10;75.70;;;;;;5073661;28;20045;-62
2022/03/12 04:18:28;;;;;;;11.32;6.82;;;8.10;76.40;;;;;;5073666;28;20052;-62
2022/03/12 04:20:54;;;;;;;11.35;7.35;;;8.00;77.20;;;;;;5073396;28;20049;-61
2022/03/12 04:23:25;;;;;;;9.48;6.63;;;8.00;77.90;;;;;;5073311;28;20048;-62
2022/03/12 04:25:53;;;;;;;12.05;6.72;;;8.00;78.70;;;;;;5073958;28;20060;-61
2022/03/12 04:28:21;;;;;;;11.30;6.90;;;8.00;78.40;;;;;;5073341;28;20028;-61
2022/03/12 04:30:47;;;;;;;9.55;7.10;;;8.00;79.20;;;;;;5073640;28;20171;-62
2022/03/12 04:33:14;;;;;;;10.30;7.15;;;7.90;81.20;;;;;;5073133;28;20454;-61
2022/03/12 04:35:41;;;;;;;13.60;8.02;;;7.90;81.30;;;;;;5073377;28;20487;-62
2022/03/12 04:38:09;;;;;;;10.65;7.28;;;7.80;83.60;;;;;;5073432;28;20055;-61
2022/03/12 04:40:37;;;;;;;11.70;7.38;;;7.70;83.70;;;;;;5073254;28;20090;-61
2022/03/12 04:43:06;;;;;;;17.35;7.80;;;7.70;83.90;;;;;;5073240;28;20052;-62
2022/03/12 04:45:32;;;;;;;11.48;7.10;;;7.70;85.80;;;;;;5072272;28;20045;-62
2022/03/12 04:47:57;;;;;;;11.45;7.50;;;7.70;86.00;;;;;;5073182;28;20059;-62
2022/03/12 04:50:24;;;;;;;10.90;7.20;;;7.70;87.50;;;;;;5073671;28;20075;-61
2022/03/12 04:52:57;;;;;;;12.00;7.45;;;7.70;86.60;;;;;;5072844;28;20569;-62
2022/03/12 04:55:25;;;;;;;10.95;7.38;;;7.50;89.60;;;;;;5073366;28;20457;-62
2022/03/12 04:57:52;;;;;;;11.45;8.13;;;7.60;87.70;;;;;;5073233;28;20056;-61
2022/03/12 05:00:26;;;;;;;11.85;7.40;;;7.60;87.90;;;;;;5073144;28;20432;-61
2022/03/12 05:03:01;;;;;;;;;;;7.50;88.70;;;;;;5077220;28;20041;-62
2022/03/12 05:05:26;;;;;;;11.30;7.53;;;7.60;87.00;;;;;;5075946;28;19920;-62
2022/03/12 05:07:52;;;;;;;13.57;7.32;;;7.60;87.10;;;;;;5076006;28;20363;-61
2022/03/12 05:10:18;;;;;;;10.63;7.10;;;7.60;87.60;;;;;;5076658;28;20408;-62
2022/03/12 05:12:46;;;;;;;12.32;8.02;;;7.60;88.30;;;;;;5076215;28;20045;-61
2022/03/12 05:15:15;;;;;;;12.88;7.20;;;7.60;86.10;;;;;;5076724;28;20033;-62
2022/03/12 05:17:50;;;;;;;13.73;7.50;;;7.60;87.30;;;;;;5076305;28;20091;-62
2022/03/12 05:20:22;;;;;;;11.07;7.93;;;7.60;86.30;;;;;;5075607;28;20110;-61
2022/03/12 05:22:48;;;;;;;11.35;7.30;;;7.60;86.70;;;;;;5076401;28;20048;-61
2022/03/12 05:25:16;;;;;;;11.75;7.20;;;7.70;85.80;;;;;;5076712;28;20037;-61
2022/03/12 05:27:41;;;;;;;11.15;7.38;;;7.60;85.90;;;;;;5076419;28;20036;-62
2022/03/12 05:30:08;;;;;;;11.88;7.35;;;7.70;85.70;;;;;;5076725;28;20116;-62
2022/03/12 05:32:33;;;;;;;12.95;7.60;;;7.70;85.30;;;;;;5075865;28;20037;-65
2022/03/12 05:34:59;;;;;;;10.95;7.32;;;7.70;85.80;;;;;;5076625;28;20037;-61
2022/03/12 05:37:25;;;;;;;14.13;7.47;;;7.70;85.50;;;;;;5076418;28;20051;-61
2022/03/12 05:39:54;;;;;;;11.25;7.43;;;7.70;84.20;;;;;;5076572;28;20074;-62
2022/03/12 05:42:22;;;;;;;11.15;7.88;;;7.80;85.40;;;;;;5074934;28;20064;-61
2022/03/12 05:44:51;;;;;;;13.95;7.57;;;7.80;84.70;;;;;;5076397;28;20162;-61
2022/03/12 05:47:18;;;;;;;11.85;7.18;;;7.90;84.60;;;;;;5075607;28;20055;-61
2022/03/12 05:49:44;;;;;;;11.05;7.47;;;7.90;84.60;;;;;;5075993;28;20343;-63
2022/03/12 05:52:10;;;;;;;11.50;7.32;;;7.90;84.10;;;;;;5075860;28;20051;-61
2022/03/12 05:54:36;;;;;;;12.63;7.70;;;8.00;83.80;;;;;;5076004;28;20040;-62
2022/03/12 05:57:02;;;;;;;12.02;7.80;;;8.00;84.10;;;;;;5075066;28;20063;-62
2022/03/12 05:59:29;;;;;;;12.50;7.68;;;7.90;84.60;;;;;;5076175;28;20037;-62
2022/03/12 06:01:54;;;;;;;10.70;7.40;;;8.00;84.70;;;;;;5075384;28;20386;-62
2022/03/12 06:04:26;;;;;;;12.18;7.90;;;8.00;84.90;;;;;;5075956;28;20040;-61
2022/03/12 06:06:55;;;;;;;14.55;8.57;;;8.00;84.70;;;;;;5075914;28;20094;-62
2022/03/12 06:09:21;;;;;;;11.90;7.72;;;8.00;85.00;;;;;;5075204;28;20055;-61
2022/03/12 06:11:53;;;;;;;15.07;8.70;;;8.00;84.90;;;;;;5074668;28;20102;-63
2022/03/12 06:14:21;;;;;;;11.98;7.90;;;8.00;85.20;;;;;;5075071;28;20076;-61
2022/03/12 06:16:48;;;;;;;11.57;7.82;;;8.00;85.40;;;;;;5075180;28;20474;-61
2022/03/12 06:19:19;;;;;;;13.15;8.02;;;7.90;85.60;;;;;;5075455;28;20037;-61
2022/03/12 06:21:46;;;;;;;11.75;8.00;;;7.90;85.50;;;;;;5075760;28;20044;-62
2022/03/12 06:24:12;;;;;;;12.05;7.80;;;7.90;85.60;;;;;;5075518;28;20045;-62
2022/03/12 06:26:39;;;;;;;13.32;8.18;;;7.90;85.80;;;;;;5074941;28;20519;-62
2022/03/12 06:29:10;;;;;;;12.38;7.85;;;7.90;85.70;;;;;;5075497;28;20416;-62
2022/03/12 06:31:36;;;;;;;14.15;8.35;;;7.90;85.20;;;;;;5075389;28;20052;-61
2022/03/12 06:34:02;;;;;;;13.07;8.40;;;7.90;85.70;;;;;;5075177;28;20036;-62
2022/03/12 06:36:28;;;;;;;12.77;8.35;;;7.90;85.40;;;;;;5075163;28;21252;-61
2022/03/12 06:38:53;;;;;;;14.23;7.97;;;7.90;85.80;;;;;;5075660;28;20120;-62
2022/03/12 06:41:20;;;;;;;13.77;8.18;;;7.80;86.00;;;;;;5075248;28;20123;-61
2022/03/12 06:43:46;;;;;;;11.65;8.02;;;7.80;86.20;;;;;;5057300;28;20129;-61
2022/03/12 06:46:16;;;;;;;14.63;7.97;;;7.80;85.80;;;;;;5074965;28;20048;-62
2022/03/12 06:48:42;;;;;;;15.55;8.40;;;7.80;86.40;;;;;;5055166;28;20045;-61
2022/03/12 06:51:10;;;;;;;10.95;8.13;;;7.90;86.20;;;;;;5055084;28;20032;-61
2022/03/12 06:53:37;;;;;;;11.10;7.70;;;8.00;86.00;;;;;;5054687;28;20052;-62
2022/03/12 06:56:03;;;;;;;15.70;8.23;;;8.20;85.60;;;;;;5054712;28;20466;-62
2022/03/12 06:58:29;;;;;;;12.20;7.68;;;8.30;85.20;;;;;;5072780;28;20044;-61
2022/03/12 07:00:56;;;;;;;12.52;8.68;;;8.40;84.90;;;;;;5074793;28;20087;-62
2022/03/12 07:03:22;;;;;;;12.85;8.32;;;8.60;84.80;;;;;;5074663;28;20068;-61
2022/03/12 07:05:48;;;;;;;12.80;7.95;;;8.70;84.70;;;;;;5074769;28;20133;-61
2022/03/12 07:08:14;;;;;;;12.30;8.10;;;8.70;84.20;;;;;;5074546;28;20182;-62
2022/03/12 07:10:40;;;;;;;13.43;8.88;;;8.80;84.30;;;;;;5073760;28;20044;-61
2022/03/12 07:13:06;;;;;;;13.18;7.97;;;8.80;84.20;;;;;;5073956;28;20051;-62
2022/03/12 07:15:31;;;;;;;12.98;8.15;;;8.90;84.40;;;;;;5074647;28;20153;-62
2022/03/12 07:17:57;;;;;;;16.40;8.60;;;9.00;83.90;;;;;;5074239;28;20119;-61
2022/03/12 07:20:23;;;;;;;15.13;8.70;;;9.10;83.90;;;;;;5074237;28;20484;-61
2022/03/12 07:22:49;;;;;;;13.60;8.10;;;9.10;83.90;;;;;;5072900;28;20096;-62
2022/03/12 07:25:16;;;;;;;13.73;8.07;;;9.10;83.20;;;;;;5073927;28;20051;-61
2022/03/12 07:27:43;;;;;;;12.38;8.95;;;9.20;83.30;;;;;;5074143;28;20365;-61
2022/03/12 07:30:12;;;;;;;12.55;8.07;;;9.10;83.60;;;;;;5074393;28;20097;-62
2022/03/12 07:32:39;;;;;;;13.25;7.88;;;9.10;83.90;;;;;;5065100;28;20067;-62
2022/03/12 07:35:06;;;;;;;13.68;8.05;;;9.10;84.00;;;;;;5053451;28;20056;-62
2022/03/12 07:37:32;;;;;;;14.13;8.32;;;9.20;84.10;;;;;;5056853;28;20068;-62
2022/03/12 07:39:58;;;;;;;13.65;8.23;;;9.20;84.60;;;;;;5053403;28;20470;-61
2022/03/12 07:42:23;;;;;;;14.60;8.98;;;9.20;84.80;;;;;;5053227;28;20041;-63
2022/03/12 07:44:49;;;;;;;12.02;8.55;;;9.30;85.20;;;;;;5053473;28;20458;-62
2022/03/12 07:47:15;;;;;;;15.55;8.77;;;9.30;85.50;;;;;;5054749;28;20529;-63
2022/03/12 07:49:41;;;;;;;12.13;8.50;;;9.40;85.80;;;;;;5053330;28;20134;-63
2022/03/12 07:52:08;;;;;;;14.23;9.63;;;9.50;85.90;;;;;;5052829;28;20029;-63
2022/03/12 07:54:34;;;;;;;13.35;8.73;;;9.60;86.40;;;;;;5053335;28;20077;-62
2022/03/12 07:57:01;;;;;;;13.20;8.60;;;9.60;86.60;;;;;;5054470;28;20045;-62
2022/03/12 07:59:29;;;;;;;12.52;8.32;;;9.60;86.80;;;;;;5053274;28;20143;-62
2022/03/12 08:01:55;;;;;;;12.48;9.32;;;9.70;86.60;;;;;;5052085;28;20045;-62
2022/03/12 08:04:21;;;;;;;13.90;9.25;;;9.80;86.80;;;;;;5053344;28;20051;-62
2022/03/12 08:06:49;;;;;;;14.68;8.57;;;9.80;87.00;;;;;;5052539;28;20040;-62
2022/03/12 08:09:14;;;;;;;14.82;9.07;;;10.00;87.30;;;;;;5053180;28;20048;-61
2022/03/12 08:11:40;;;;;;;13.85;8.82;;;10.10;87.40;;;;;;5051770;28;20037;-62
2022/03/12 08:14:15;;;;;;;14.52;9.57;;;10.20;87.60;;;;;;5052780;28;20065;-63
2022/03/12 08:16:42;;;;;;;13.57;9.15;;;10.30;87.60;;;;;;5054031;28;20048;-62
2022/03/12 08:19:08;;;;;;;16.27;9.18;;;10.40;87.70;;;;;;5069607;28;20040;-61
2022/03/12 08:21:34;;;;;;;15.65;9.07;;;10.40;88.30;;;;;;5073359;28;20060;-62
2022/03/12 08:24:02;;;;;;;12.18;8.70;;;10.50;88.50;;;;;;5072031;28;20171;-62
2022/03/12 08:26:28;;;;;;;12.75;9.10;;;10.60;88.90;;;;;;5072089;28;20360;-63
2022/03/12 08:28:54;;;;;;;15.07;8.98;;;10.70;89.00;;;;;;5053066;28;20116;-62
2022/03/12 08:31:20;;;;;;;14.93;8.95;;;10.70;89.80;;;;;;5051729;28;20052;-62
2022/03/12 08:33:46;;;;;;;15.07;8.85;;;10.80;90.00;;;;;;5052549;28;20036;-62
2022/03/12 08:36:13;;;;;;;14.65;9.02;;;10.80;90.10;;;;;;5054312;28;20121;-63
2022/03/12 08:38:39;;;;;;;12.82;8.57;;;10.90;90.40;;;;;;5057868;28;20034;-62
2022/03/12 08:41:06;;;;;;;19.20;8.80;;;11.00;90.80;;;;;;5056949;28;20040;-63
2022/03/12 08:43:37;;;;;;;13.35;8.65;;;11.10;90.90;;;;;;5056539;28;20056;-63
2022/03/12 08:46:05;;;;;;;11.80;8.82;;;11.20;91.20;;;;;;5056459;28;20454;-62
2022/03/12 08:48:32;;;;;;;12.82;8.23;;;11.20;91.50;;;;;;5057799;28;20128;-63
2022/03/12 08:50:58;;;;;;;15.35;9.43;;;11.30;91.50;;;;;;5056867;28;20036;-63
2022/03/12 08:53:23;;;;;;;11.85;8.43;;;11.30;91.70;;;;;;5056535;28;20041;-62
2022/03/12 08:55:49;;;;;;;13.43;8.63;;;11.40;92.00;;;;;;5056969;28;20051;-61
2022/03/12 08:58:15;;;;;;;13.38;8.35;;;11.50;91.90;;;;;;5073803;28;20680;-62
2022/03/12 09:00:42;;;;;;;13.85;8.55;;;11.60;92.20;;;;;;5076865;28;20047;-62
2022/03/12 09:03:09;;;;;;;16.30;8.75;;;11.70;92.30;;;;;;5076702;28;20380;-63
2022/03/12 09:05:35;;;;;;;12.82;8.57;;;11.80;92.50;;;;;;5076912;28;20041;-63
2022/03/12 09:08:01;;;;;;;13.05;8.05;;;11.80;92.60;;;;;;5075466;28;20406;-62
2022/03/12 09:10:27;;;;;;;12.50;8.30;;;11.90;93.00;;;;;;5076835;28;20075;-62
2022/03/12 09:12:53;;;;;;;13.02;9.15;;;12.00;93.30;;;;;;5067071;28;20076;-63
2022/03/12 09:15:24;;;;;;;12.15;8.30;;;12.10;93.40;;;;;;5056884;28;20102;-62
2022/03/12 09:17:52;;;;;;;12.10;8.40;;;12.10;93.50;;;;;;5066187;28;20048;-63
2022/03/12 09:20:19;;;;;;;11.73;8.07;;;12.10;93.80;;;;;;5056306;28;20064;-63
2022/03/12 09:22:46;;;;;;;12.48;8.07;;;12.20;94.00;;;;;;5056238;28;20052;-63
2022/03/12 09:25:13;;;;;;;13.07;8.13;;;12.30;94.30;;;;;;5056602;28;20052;-62
2022/03/12 09:27:45;;;;;;;11.75;7.78;;;12.40;95.10;;;;;;5066655;28;20040;-63
2022/03/12 09:30:14;;;;;;;10.30;7.45;;;12.40;95.60;;;;;;5076338;28;20465;-62
2022/03/12 09:32:41;;;;;;;12.23;7.80;;;12.40;95.90;;;;;;5075119;28;20032;-62
2022/03/12 09:35:08;;;;;;;11.73;7.80;;;12.50;96.40;;;;;;5060963;28;20037;-62
2022/03/12 09:37:38;;;;;;;9.93;7.43;;;12.70;96.70;;;;;;5059036;28;20040;-63
2022/03/12 09:40:04;;;;;;;9.40;7.20;;;12.70;97.00;;;;;;5055717;28;20045;-63
2022/03/12 09:42:30;;;;;;;13.85;7.70;;;12.70;97.10;;;;;;5055252;28;20222;-62
2022/03/12 09:45:00;;;;;;;10.80;7.68;;;12.70;97.50;;;;;;5055458;28;20037;-63
2022/03/12 09:47:26;;;;;;;10.10;6.88;;;12.70;97.50;;;;;;5063735;28;20052;-62
2022/03/12 09:49:52;;;;;;;10.70;7.20;;;12.70;97.90;;;;;;5064765;28;20106;-62
2022/03/12 09:52:17;;;;;;;9.88;7.18;;;12.70;97.70;;;;;;5055515;28;20053;-62
2022/03/12 09:54:44;;;;;;;10.57;7.13;;;12.80;97.80;;;;;;5055628;28;20037;-62
2022/03/12 09:57:10;;;;;;;10.85;7.85;;;12.70;98.00;;;;;;5063090;28;20063;-63
2022/03/12 09:59:35;;;;;;;11.15;7.88;;;12.80;98.20;;;;;;5076134;28;20040;-62
2022/03/12 10:02:02;;;;;;;11.25;7.25;;;12.80;98.00;;;;;;5075323;28;20036;-62
2022/03/12 10:04:28;;;;;;;9.32;7.07;;;12.90;98.00;;;;;;5075833;28;20044;-63
2022/03/12 10:06:55;;;;;;;10.48;7.90;;;13.00;98.00;;;;;;5074204;28;20037;-63
2022/03/12 10:09:21;;;;;;;12.15;8.27;;;13.00;97.70;;;;;;5076085;28;20108;-62
2022/03/12 10:11:49;;;;;;;11.55;7.60;;;12.90;97.90;;;;;;5075550;28;20194;-62
2022/03/12 10:14:16;;;;;;;11.15;7.43;;;13.00;98.20;;;;;;5075490;28;20605;-62
2022/03/12 10:16:42;;;;;;;10.05;7.47;;;13.00;98.10;;;;;;5074265;28;20437;-63
2022/03/12 10:19:08;;;;;;;13.73;8.82;;;12.80;98.50;;;;;;5074288;28;20048;-64
2022/03/12 10:21:36;;;;;;;10.07;7.57;;;12.90;98.50;;;;;;5075402;28;20070;-63
2022/03/12 10:24:02;;;;;;;13.30;8.13;;;13.00;98.50;;;;;;5068947;28;20059;-62
2022/03/12 10:26:28;;;;;;;11.85;8.10;;;13.10;98.30;;;;;;5055814;28;20413;-64
2022/03/12 10:28:53;;;;;;;9.75;7.47;;;13.00;98.50;;;;;;5056511;28;20045;-62
2022/03/12 10:31:19;;;;;;;11.65;8.55;;;13.10;98.50;;;;;;5054683;28;20131;-62
2022/03/12 10:33:45;;;;;;;11.18;7.43;;;13.20;98.40;;;;;;5053635;28;20044;-62
2022/03/12 10:36:14;;;;;;;11.45;7.75;;;13.30;98.30;;;;;;5055036;28;20059;-62
2022/03/12 10:38:41;;;;;;;11.13;7.55;;;13.30;98.00;;;;;;5073412;28;20044;-62
2022/03/12 10:41:07;;;;;;;12.18;7.68;;;13.50;98.10;;;;;;5073975;28;20033;-63
2022/03/12 10:43:53;;;;;;;12.02;8.55;;;13.50;98.00;;;;;;5068577;28;20107;-62
2022/03/12 10:46:21;;;;;;;9.90;7.32;;;13.60;98.30;;;;;;5054265;28;20032;-62
2022/03/12 10:48:51;;;;;;;10.73;7.07;;;13.50;98.30;;;;;;5074653;28;20040;-62
2022/03/12 10:51:18;;;;;;;11.23;7.50;;;13.50;98.30;;;;;;5064922;28;20094;-62
2022/03/12 10:53:45;;;;;;;10.65;7.57;;;13.50;98.60;;;;;;5054028;28;20068;-62
2022/03/12 10:56:11;;;;;;;13.98;8.00;;;13.60;98.30;;;;;;5054595;28;20086;-64
2022/03/12 10:58:37;;;;;;;11.23;7.90;;;13.60;98.40;;;;;;5055843;28;20370;-63
2022/03/12 11:01:03;;;;;;;10.18;7.22;;;13.60;98.50;;;;;;5053559;28;20454;-63
2022/03/12 11:03:37;;;;;;;10.23;6.93;;;13.80;98.70;;;;;;5052500;28;20037;-61
2022/03/12 11:06:05;;;;;;;11.70;7.22;;;13.80;98.50;;;;;;5054457;28;20119;-61
2022/03/12 11:08:35;;;;;;;10.43;7.03;;;13.90;98.50;;;;;;5055967;28;20033;-64
2022/03/12 11:11:12;;;;;;;9.85;6.68;;;13.90;98.50;;;;;;5054150;28;20373;-64
2022/03/12 11:13:43;;;;;;;10.38;7.53;;;14.10;98.30;;;;;;5054111;28;20037;-60
2022/03/12 11:16:13;;;;;;;10.30;6.90;;;14.10;98.30;;;;;;5053531;28;20048;-60
2022/03/12 11:18:51;;;;;;;10.07;6.95;;;14.20;98.50;;;;;;5073226;28;20098;-63
2022/03/12 11:21:55;;;;;;;9.73;6.90;;;14.20;98.10;;;;;;5062869;28;20140;-62
2022/03/12 11:24:24;;;;;;;9.75;6.88;;;14.30;98.10;;;;;;5048281;28;20063;-63
2022/03/12 11:26:54;;;;;;;10.05;7.07;;;14.30;97.90;;;;;;5054100;28;20043;-63
2022/03/12 11:29:22;;;;;;;12.43;7.05;;;14.20;98.00;;;;;;5053549;28;20480;-63
2022/03/12 11:31:53;;;;;;;10.05;6.97;;;14.20;97.90;;;;;;5053113;28;20045;-63
2022/03/12 11:34:32;;;;;;;9.40;6.88;;;14.20;97.80;;;;;;5058326;28;20037;-62
2022/03/12 11:36:59;;;;;;;10.68;6.50;;;14.20;98.00;;;;;;5072523;28;20056;-63
2022/03/12 11:39:30;;;;;;;9.30;6.55;;;14.20;98.00;;;;;;5073150;28;20080;-63
2022/03/12 11:42:01;;;;;;;10.88;6.55;;;14.20;98.10;;;;;;5054463;28;20040;-63
2022/03/12 11:44:30;;;;;;;8.85;6.53;;;14.20;98.00;;;;;;5052562;28;20110;-63
2022/03/12 11:46:56;;;;;;;10.80;6.65;;;14.20;98.00;;;;;;5052603;28;20041;-62
2022/03/12 11:49:23;;;;;;;11.10;7.10;;;14.30;98.10;;;;;;5035720;28;20094;-62
2022/03/12 11:51:51;;;;;;;11.45;6.53;;;14.20;97.80;;;;;;5053685;28;20056;-62
2022/03/12 11:54:16;;;;;;;8.88;6.07;;;14.20;97.80;;;;;;5053142;28;20057;-62
2022/03/12 11:56:42;;;;;;;10.07;6.07;;;14.20;97.70;;;;;;5056209;28;20394;-62
2022/03/12 11:59:08;;;;;;;10.38;7.05;;;14.20;97.80;;;;;;5054877;28;20047;-62
2022/03/12 12:01:37;;;;;;;11.75;7.00;;;14.20;97.80;;;;;;5052099;28;20195;-63
2022/03/12 12:04:03;;;;;;;9.35;6.03;;;14.30;98.00;;;;;;5052831;28;20517;-63
2022/03/12 12:06:29;;;;;;;10.07;6.20;;;14.20;97.80;;;;;;5053960;28;20176;-63
2022/03/12 12:08:55;;;;;;;8.52;5.75;;;14.20;97.80;;;;;;5062756;28;20131;-62
2022/03/12 12:11:21;;;;;;;11.25;6.65;;;14.30;97.70;;;;;;5052322;28;20041;-62
2022/03/12 12:13:46;;;;;;;8.30;6.22;;;14.30;97.70;;;;;;5053860;28;20055;-62
2022/03/12 12:16:15;;;;;;;9.95;6.57;;;14.30;97.80;;;;;;5071797;28;20025;-62
2022/03/12 12:18:41;;;;;;;9.40;6.35;;;14.30;98.00;;;;;;5073540;28;20133;-62
2022/03/12 12:21:16;;;;;;;13.50;6.30;;;14.40;98.00;;;;;;5067913;28;20466;-62
2022/03/12 12:23:42;;;;;;;10.35;5.97;;;14.50;98.10;;;;;;5071243;28;20056;-62
2022/03/12 12:26:09;;;;;;;9.88;6.20;;;14.50;98.10;;;;;;5061816;28;20028;-62
2022/03/12 12:28:56;;;;;;;10.82;6.50;;;14.60;98.00;;;;;;5068743;28;20090;-62
2022/03/12 12:31:26;;;;;;;9.63;6.30;;;14.60;97.70;;;;;;5073367;28;20114;-62
2022/03/12 12:33:54;;;;;;;10.70;5.75;;;14.70;97.70;;;;;;5072520;28;20127;-62
2022/03/12 12:36:21;;;;;;;10.13;6.18;;;14.70;97.50;;;;;;5065539;28;20036;-62
2022/03/12 12:39:13;;;;;;;8.25;5.93;;;14.90;97.60;;;;;;5052793;28;20033;-62
2022/03/12 12:42:05;;;;;;;8.43;5.85;;;14.90;97.20;;;;;;5069446;28;20381;-62
2022/03/12 12:44:33;;;;;;;8.43;5.90;;;15.10;97.10;;;;;;5058365;28;20036;-62
2022/03/12 12:47:01;;;;;;;10.23;6.68;;;15.20;96.90;;;;;;5055294;28;20365;-63
2022/03/12 12:49:40;;;;;;;9.80;5.80;;;15.10;96.90;;;;;;5052586;28;20511;-63